createdAt,value
2018-07-17T00:00:56.460Z,46.90
2018-07-17T00:05:00.090Z,46.80
2018-07-17T00:09:04.515Z,47.00
2018-07-17T00:13:08.148Z,46.90
2018-07-17T00:17:11.749Z,47.00
2018-07-17T00:21:15.364Z,47.10
2018-07-17T00:25:18.995Z,47.10
2018-07-17T00:29:22.622Z,47.10
2018-07-17T00:33:26.296Z,47.10
2018-07-17T00:37:29.940Z,47.20
2018-07-17T00:41:33.629Z,47.30
2018-07-17T00:45:37.301Z,47.20
2018-07-17T00:49:40.927Z,47.30
2018-07-17T00:53:44.540Z,47.30
2018-07-17T00:57:48.164Z,47.60
2018-07-17T01:01:57.155Z,47.50
2018-07-17T01:06:06.141Z,47.50
2018-07-17T01:10:15.074Z,47.60
2018-07-17T01:14:24.005Z,47.80
2018-07-17T01:18:27.591Z,47.60
2018-07-17T01:22:31.229Z,47.70
2018-07-17T01:26:34.848Z,47.70
2018-07-17T01:30:38.467Z,47.70
2018-07-17T01:34:42.089Z,47.80
2018-07-17T01:38:45.670Z,47.90
2018-07-17T01:42:49.289Z,48.00
2018-07-17T01:46:52.924Z,48.10
2018-07-17T01:50:56.552Z,48.60
2018-07-17T01:55:00.174Z,48.30
2018-07-17T01:59:03.811Z,49.00
2018-07-17T02:03:07.476Z,48.30
2018-07-17T02:07:11.223Z,48.30
2018-07-17T02:11:14.856Z,48.50
2018-07-17T02:15:18.471Z,48.60
2018-07-17T02:19:22.162Z,48.60
2018-07-17T02:23:25.851Z,48.50
2018-07-17T02:27:29.505Z,48.50
2018-07-17T02:31:33.200Z,48.50
2018-07-17T02:35:36.812Z,48.40
2018-07-17T02:39:40.460Z,48.50
2018-07-17T02:43:44.138Z,48.50
2018-07-17T02:47:47.755Z,48.60
2018-07-17T02:51:51.372Z,48.50
2018-07-17T02:55:54.992Z,48.60
2018-07-17T02:59:58.556Z,48.70
2018-07-17T03:04:02.156Z,48.80
2018-07-17T03:08:05.781Z,48.90
2018-07-17T03:12:09.385Z,49.00
2018-07-17T03:16:12.988Z,48.90
2018-07-17T03:20:16.560Z,49.40
2018-07-17T03:24:20.173Z,49.20
2018-07-17T03:28:23.786Z,49.00
2018-07-17T03:32:27.387Z,49.00
2018-07-17T03:36:31.038Z,49.00
2018-07-17T03:40:34.672Z,49.20
2018-07-17T03:48:41.508Z,49.00
2018-07-17T03:52:45.144Z,49.10
2018-07-17T03:56:48.787Z,49.30
2018-07-17T04:00:52.408Z,49.20
2018-07-17T04:04:56.477Z,49.20
2018-07-17T04:09:00.460Z,50.40
2018-07-17T04:13:04.112Z,49.30
2018-07-17T04:17:07.802Z,49.70
2018-07-17T04:21:11.452Z,49.40
2018-07-17T04:25:15.255Z,49.30
2018-07-17T04:29:18.877Z,49.30
2018-07-17T04:33:22.572Z,49.40
2018-07-17T04:37:26.266Z,49.50
2018-07-17T04:41:29.882Z,49.60
2018-07-17T04:45:33.461Z,49.80
2018-07-17T04:49:37.061Z,49.90
2018-07-17T04:53:40.682Z,49.70
2018-07-17T04:57:45.173Z,49.70
2018-07-17T05:01:48.882Z,49.80
2018-07-17T05:05:52.451Z,50.30
2018-07-17T05:09:56.060Z,50.70
2018-07-17T05:13:59.655Z,50.70
2018-07-17T05:18:03.297Z,51.00
2018-07-17T05:22:06.901Z,50.70
2018-07-17T05:26:10.468Z,50.80
2018-07-17T05:30:14.189Z,51.10
2018-07-17T05:34:17.882Z,51.20
2018-07-17T05:38:21.495Z,50.90
2018-07-17T05:42:25.078Z,50.90
2018-07-17T05:46:28.714Z,50.90
2018-07-17T05:50:32.388Z,51.10
2018-07-17T05:54:35.999Z,50.90
2018-07-17T05:58:39.664Z,51.00
2018-07-17T06:02:43.292Z,50.90
2018-07-17T06:06:46.892Z,51.10
2018-07-17T06:10:50.492Z,51.10
2018-07-17T06:14:54.091Z,51.20
2018-07-17T06:18:57.693Z,51.30
2018-07-17T06:23:01.364Z,51.30
2018-07-17T06:27:05.092Z,51.50
2018-07-17T06:31:08.715Z,51.90
2018-07-17T06:35:12.351Z,53.70
2018-07-17T06:39:15.949Z,55.00
2018-07-17T06:43:19.562Z,54.60
2018-07-17T06:47:23.215Z,54.00
2018-07-17T06:51:26.923Z,53.20
2018-07-17T06:55:30.557Z,52.20
2018-07-17T06:59:34.157Z,51.40
2018-07-17T07:03:37.773Z,50.10
2018-07-17T07:07:41.750Z,49.30
2018-07-17T07:11:45.384Z,48.60
2018-07-17T07:15:49.023Z,48.60
2018-07-17T07:19:52.636Z,47.80
2018-07-17T07:23:56.320Z,46.70
2018-07-17T07:27:59.895Z,45.80
2018-07-17T07:32:03.523Z,44.70
2018-07-17T07:36:07.186Z,44.80
2018-07-17T07:40:10.796Z,44.60
2018-07-17T07:44:14.403Z,44.30
2018-07-17T07:48:18.024Z,43.80
2018-07-17T07:52:21.637Z,43.70
2018-07-17T07:56:25.355Z,43.20
2018-07-17T08:00:28.999Z,42.10
2018-07-17T08:04:32.607Z,42.70
2018-07-17T08:08:36.267Z,42.20
2018-07-17T08:12:39.855Z,42.20
2018-07-17T08:16:43.443Z,41.80
2018-07-17T08:20:47.085Z,41.10
2018-07-17T08:24:50.693Z,40.90
2018-07-17T08:28:54.295Z,40.50
2018-07-17T08:32:57.887Z,38.90
2018-07-17T08:37:01.488Z,38.90
2018-07-17T08:41:05.087Z,39.10
2018-07-17T08:45:08.707Z,39.40
2018-07-17T08:49:12.366Z,38.90
2018-07-17T08:53:15.932Z,38.30
2018-07-17T08:57:19.593Z,38.60
2018-07-17T09:01:23.211Z,38.40
2018-07-17T09:05:26.886Z,37.70
2018-07-17T09:09:30.494Z,36.90
2018-07-17T09:13:34.069Z,35.10
2018-07-17T09:17:37.672Z,36.20
2018-07-17T09:21:41.338Z,35.70
2018-07-17T09:25:44.956Z,35.50
2018-07-17T09:29:48.893Z,35.80
2018-07-17T09:33:52.480Z,35.60
2018-07-17T09:37:56.071Z,36.90
2018-07-17T09:41:59.665Z,36.50
2018-07-17T09:46:03.264Z,38.10
2018-07-17T09:50:06.856Z,35.60
2018-07-17T09:54:10.480Z,37.90
2018-07-17T09:58:14.081Z,38.10
2018-07-17T10:02:22.983Z,38.10
2018-07-17T10:06:26.694Z,37.90
2018-07-17T10:10:30.208Z,37.60
2018-07-17T10:14:33.785Z,38.50
2018-07-17T10:18:37.661Z,37.90
2018-07-17T10:22:41.400Z,38.30
2018-07-17T10:26:45.093Z,37.00
2018-07-17T10:30:48.678Z,37.20
2018-07-17T10:34:52.250Z,37.10
2018-07-17T10:38:55.855Z,36.80
2018-07-17T10:42:59.467Z,38.60
2018-07-17T10:47:03.092Z,36.80
2018-07-17T10:51:06.756Z,36.10
2018-07-17T10:55:10.358Z,37.20
2018-07-17T10:59:13.985Z,37.10
2018-07-17T11:03:17.609Z,38.10
2018-07-17T11:07:21.225Z,36.30
2018-07-17T11:11:24.855Z,37.00
2018-07-17T11:15:28.480Z,35.90
2018-07-17T11:19:32.088Z,36.80
2018-07-17T11:23:35.697Z,37.50
2018-07-17T11:27:39.300Z,36.50
2018-07-17T11:31:42.906Z,36.70
2018-07-17T11:35:46.502Z,37.00
2018-07-17T11:39:50.071Z,38.40
2018-07-17T11:43:53.663Z,37.90
2018-07-17T11:47:57.338Z,37.90
2018-07-17T11:52:00.916Z,37.90
2018-07-17T11:56:04.623Z,37.80
2018-07-17T12:00:08.195Z,37.90
2018-07-17T12:04:11.788Z,36.90
2018-07-17T12:08:15.401Z,35.80
2018-07-17T12:12:19.035Z,37.70
2018-07-17T12:16:22.692Z,38.40
2018-07-17T12:20:26.349Z,38.10
2018-07-17T12:24:29.948Z,36.90
2018-07-17T12:28:33.542Z,37.60
2018-07-17T12:32:37.161Z,35.20
2018-07-17T12:36:40.756Z,36.60
2018-07-17T12:40:44.311Z,35.30
2018-07-17T12:44:47.923Z,33.10
2018-07-17T12:48:51.531Z,34.80
2018-07-17T12:52:55.135Z,32.90
2018-07-17T12:56:58.782Z,36.30
2018-07-17T13:05:05.955Z,35.60
2018-07-17T13:09:10.253Z,35.90
2018-07-17T13:13:13.871Z,33.70
2018-07-17T13:17:17.516Z,34.30
2018-07-17T13:21:21.112Z,34.40
2018-07-17T13:25:24.718Z,34.70
2018-07-17T13:29:28.316Z,35.60
2018-07-17T13:33:31.937Z,35.90
2018-07-17T13:37:35.634Z,36.40
2018-07-17T13:41:39.210Z,34.80
2018-07-17T13:45:42.850Z,34.90
2018-07-17T13:49:46.448Z,36.20
2018-07-17T13:53:50.125Z,35.80
2018-07-17T13:57:53.834Z,36.20
2018-07-17T14:01:57.451Z,34.50
2018-07-17T14:06:01.067Z,33.60
2018-07-17T14:10:04.803Z,34.40
2018-07-17T14:14:08.464Z,35.30
2018-07-17T14:18:12.153Z,34.60
2018-07-17T14:22:15.736Z,35.20
2018-07-17T14:26:19.384Z,34.20
2018-07-17T14:30:22.992Z,34.70
2018-07-17T14:34:26.609Z,35.00
2018-07-17T14:38:30.233Z,34.50
2018-07-17T14:42:33.863Z,35.20
2018-07-17T14:46:37.600Z,35.00
2018-07-17T14:50:41.425Z,34.30
2018-07-17T14:54:45.045Z,34.40
2018-07-17T14:58:48.776Z,35.70
2018-07-17T15:02:52.818Z,35.50
2018-07-17T15:06:56.461Z,35.90
2018-07-17T15:11:00.068Z,35.90
2018-07-17T15:15:03.791Z,35.00
2018-07-17T15:19:07.378Z,35.30
2018-07-17T15:23:11.899Z,34.90
2018-07-17T15:27:15.470Z,32.30
2018-07-17T15:31:19.107Z,34.50
2018-07-17T15:35:22.716Z,35.10
2018-07-17T15:39:26.425Z,34.00
2018-07-17T15:43:30.133Z,33.80
2018-07-17T15:47:33.704Z,34.30
2018-07-17T15:51:37.312Z,33.80
2018-07-17T15:55:41.188Z,33.00
2018-07-17T15:59:44.804Z,34.50
2018-07-17T16:07:39.292Z,34.10
2018-07-17T16:11:42.960Z,35.00
2018-07-17T16:15:46.617Z,35.40
2018-07-17T16:19:50.275Z,35.20
2018-07-17T16:23:53.959Z,35.70
2018-07-17T16:27:57.609Z,35.20
2018-07-17T16:32:01.307Z,35.20
2018-07-17T16:36:05.059Z,35.50
2018-07-17T16:40:08.723Z,35.90
2018-07-17T16:44:12.368Z,36.20
2018-07-17T16:48:16.011Z,36.50
2018-07-17T16:52:19.659Z,36.70
2018-07-17T16:56:23.362Z,36.60
2018-07-17T17:00:27.016Z,36.60
2018-07-17T17:04:30.682Z,35.50
2018-07-17T17:08:34.315Z,34.30
2018-07-17T17:12:38.004Z,34.60
2018-07-17T17:16:41.876Z,35.30
2018-07-17T17:20:45.578Z,35.70
2018-07-17T17:24:49.253Z,35.80
2018-07-17T17:28:52.876Z,35.80
2018-07-17T17:32:56.565Z,35.60
2018-07-17T17:37:00.217Z,36.30
2018-07-17T17:41:03.872Z,36.50
2018-07-17T17:45:07.524Z,36.80
2018-07-17T17:49:11.183Z,36.70
2018-07-17T17:53:14.831Z,36.90
2018-07-17T17:57:18.535Z,36.80
2018-07-17T18:01:22.237Z,36.90
2018-07-17T18:05:25.907Z,36.90
2018-07-17T18:09:29.575Z,37.10
2018-07-17T18:13:33.318Z,37.00
2018-07-17T18:17:37.079Z,37.20
2018-07-17T18:21:40.720Z,38.40
2018-07-17T18:25:44.408Z,39.60
2018-07-17T18:29:48.043Z,39.90
2018-07-17T18:33:51.786Z,40.30
2018-07-17T18:37:55.456Z,41.20
2018-07-17T18:41:59.125Z,41.60
2018-07-17T18:46:02.781Z,41.20
2018-07-17T18:50:12.866Z,42.00
2018-07-17T18:54:10.259Z,42.50
2018-07-17T18:58:14.033Z,42.00
2018-07-17T19:02:17.721Z,42.50
2018-07-17T19:06:21.371Z,42.80
2018-07-17T19:10:24.984Z,42.40
2018-07-17T19:14:28.654Z,43.20
2018-07-17T19:18:32.417Z,43.30
2018-07-17T19:22:36.155Z,42.50
2018-07-17T19:26:39.932Z,43.60
2018-07-17T19:30:43.562Z,42.80
2018-07-17T19:34:47.212Z,42.70
2018-07-17T19:38:50.975Z,42.50
2018-07-17T19:42:54.716Z,42.80
2018-07-17T19:46:58.452Z,42.80
2018-07-17T19:51:02.149Z,42.80
2018-07-17T19:55:06.369Z,42.80
2018-07-17T19:59:10.060Z,42.50
2018-07-17T20:03:13.711Z,42.80
2018-07-17T20:07:17.476Z,42.80
2018-07-17T20:11:21.129Z,43.80
2018-07-17T20:15:24.779Z,44.20
2018-07-17T20:19:28.561Z,43.10
2018-07-17T20:23:32.325Z,43.00
2018-07-17T20:27:35.975Z,43.00
2018-07-17T20:31:39.648Z,43.60
2018-07-17T20:35:43.291Z,43.10
2018-07-17T20:39:46.949Z,44.00
2018-07-17T20:43:50.603Z,43.50
2018-07-17T20:47:54.332Z,43.70
2018-07-17T20:51:58.025Z,44.50
2018-07-17T20:56:01.681Z,43.70
2018-07-17T21:00:05.722Z,43.80
2018-07-17T21:04:09.387Z,43.90
2018-07-17T21:08:13.069Z,44.00
2018-07-17T21:12:16.767Z,44.60
2018-07-17T21:16:20.384Z,44.50
2018-07-17T21:24:27.386Z,45.00
2018-07-17T21:28:31.096Z,45.10
2018-07-17T21:32:34.765Z,45.70
2018-07-17T21:36:38.399Z,46.10
2018-07-17T21:40:42.072Z,46.30
2018-07-17T21:44:45.744Z,47.10
2018-07-17T21:48:49.735Z,47.00
2018-07-17T21:52:53.447Z,46.30
2018-07-17T21:56:57.121Z,45.90
2018-07-17T22:01:00.801Z,45.80
2018-07-17T22:05:04.536Z,47.10
2018-07-17T22:09:11.420Z,46.10
2018-07-17T22:13:15.090Z,45.90
2018-07-17T22:17:18.747Z,46.10
2018-07-17T22:21:22.457Z,46.30
2018-07-17T22:25:26.121Z,48.30
2018-07-17T22:29:29.788Z,47.00
2018-07-17T22:33:33.455Z,47.70
2018-07-17T22:37:37.103Z,47.80
2018-07-17T22:41:40.832Z,47.20
2018-07-17T22:45:44.591Z,48.80
2018-07-17T22:49:48.260Z,48.00
2018-07-17T22:53:51.925Z,47.90
2018-07-17T22:57:55.626Z,48.40
2018-07-17T23:01:59.329Z,48.40
2018-07-17T23:06:03.032Z,47.60
2018-07-17T23:10:06.740Z,49.10
2018-07-17T23:14:10.454Z,48.40
2018-07-17T23:18:14.114Z,49.00
2018-07-17T23:22:23.877Z,49.30
2018-07-17T23:26:27.645Z,48.90
2018-07-17T23:30:31.298Z,48.30
2018-07-17T23:34:35.045Z,48.20
2018-07-17T23:38:38.709Z,48.40
2018-07-17T23:42:42.332Z,49.00
2018-07-17T23:46:46.000Z,48.60
2018-07-17T23:50:49.668Z,50.40
2018-07-17T23:54:53.331Z,49.20
2018-07-17T23:58:57.018Z,49.20
